createdAt,value
2023-04-12T00:04:24.940Z,75.86
2023-04-12T00:09:31.085Z,75.78
2023-04-12T00:14:36.515Z,75.42
2023-04-12T00:19:45.195Z,75.81
2023-04-12T00:24:50.701Z,76.04
2023-04-12T00:29:56.586Z,76.42
2023-04-12T00:35:02.124Z,76.19
2023-04-12T00:40:10.189Z,76.28
2023-04-12T00:45:16.452Z,76.63
2023-04-12T00:50:23.505Z,77.00
2023-04-12T00:55:29.043Z,77.20
2023-04-12T01:00:35.775Z,77.57
2023-04-12T01:05:44.315Z,77.67
2023-04-12T01:10:59.109Z,77.63
2023-04-12T01:16:17.322Z,77.95
2023-04-12T01:21:43.774Z,78.41
2023-04-12T01:26:53.237Z,78.37
2023-04-12T01:32:04.951Z,78.48
2023-04-12T01:37:11.531Z,78.55
2023-04-12T01:42:21.886Z,78.69
2023-04-12T01:47:28.129Z,79.02
2023-04-12T01:52:36.729Z,78.53
2023-04-12T01:57:45.048Z,78.29
2023-04-12T02:02:51.464Z,78.50
2023-04-12T02:07:58.308Z,78.63
2023-04-12T02:13:04.597Z,78.44
2023-04-12T02:18:10.085Z,78.56
2023-04-12T02:23:16.373Z,78.69
2023-04-12T02:28:23.344Z,78.79
2023-04-12T02:33:29.744Z,78.96
2023-04-12T02:38:36.576Z,78.63
2023-04-12T02:43:43.272Z,78.65
2023-04-12T02:48:49.588Z,78.66
2023-04-12T02:53:56.318Z,78.16
2023-04-12T02:59:03.635Z,78.32
2023-04-12T03:04:17.146Z,78.41
2023-04-12T03:09:25.183Z,78.51
2023-04-12T03:14:32.329Z,78.74
2023-04-12T03:19:38.493Z,78.89
2023-04-12T03:24:46.164Z,78.73
2023-04-12T03:29:53.261Z,78.33
2023-04-12T03:35:00.934Z,78.33
2023-04-12T03:40:08.172Z,78.54
2023-04-12T03:45:14.064Z,79.25
2023-04-12T03:50:22.291Z,78.46
2023-04-12T03:55:29.480Z,79.22
2023-04-12T04:00:36.025Z,79.18
2023-04-12T04:05:46.299Z,80.04
2023-04-12T04:10:52.984Z,80.70
2023-04-12T04:16:10.023Z,80.80
2023-04-12T04:21:17.106Z,81.31
2023-04-12T04:26:24.534Z,81.42
2023-04-12T04:31:37.700Z,81.89
2023-04-12T04:36:45.071Z,82.11
2023-04-12T04:41:53.837Z,82.29
2023-04-12T04:47:10.100Z,82.34
2023-04-12T04:52:18.110Z,82.39
2023-04-12T04:57:26.831Z,82.57
2023-04-12T05:02:37.069Z,82.32
2023-04-12T05:07:44.605Z,82.32
2023-04-12T05:12:50.235Z,82.51
2023-04-12T05:17:57.966Z,82.80
2023-04-12T05:23:03.646Z,83.33
2023-04-12T05:28:11.075Z,83.22
2023-04-12T05:33:16.869Z,83.34
2023-04-12T05:38:24.191Z,83.37
2023-04-12T05:43:31.526Z,83.35
2023-04-12T05:48:37.197Z,82.79
2023-04-12T05:53:42.794Z,82.93
2023-04-12T05:58:49.500Z,82.71
2023-04-12T06:03:55.810Z,82.30
2023-04-12T06:09:02.697Z,81.79
2023-04-12T06:14:11.205Z,81.64
2023-04-12T06:19:16.089Z,81.68
2023-04-12T06:24:21.628Z,81.20
2023-04-12T06:29:27.224Z,81.68
2023-04-12T06:34:34.521Z,81.07
2023-04-12T06:39:42.891Z,81.01
2023-04-12T06:44:48.340Z,80.86
2023-04-12T06:49:56.303Z,80.12
2023-04-12T06:55:01.959Z,79.50
2023-04-12T07:00:08.985Z,77.59
2023-04-12T07:05:15.940Z,77.51
2023-04-12T07:10:21.358Z,76.67
2023-04-12T07:15:26.954Z,76.55
2023-04-12T07:20:32.472Z,76.83
2023-04-12T07:25:40.766Z,75.97
2023-04-12T07:30:46.433Z,74.59
2023-04-12T07:35:51.909Z,74.90
2023-04-12T07:40:57.829Z,72.55
2023-04-12T07:46:08.244Z,72.93
2023-04-12T07:51:14.283Z,73.12
2023-04-12T07:56:19.782Z,72.93
2023-04-12T08:01:25.224Z,72.66
2023-04-12T08:06:33.025Z,71.03
2023-04-12T08:11:38.765Z,70.77
2023-04-12T08:16:44.268Z,68.54
2023-04-12T08:21:49.832Z,70.14
2023-04-12T08:26:56.260Z,69.82
2023-04-12T08:32:05.321Z,69.17
2023-04-12T08:37:10.809Z,67.15
2023-04-12T08:42:17.621Z,68.43
2023-04-12T08:47:24.407Z,66.69
2023-04-12T08:52:30.526Z,67.25
2023-04-12T08:57:41.488Z,66.26
2023-04-12T09:02:49.156Z,67.48
2023-04-12T09:07:54.905Z,65.48
2023-04-12T09:13:01.444Z,65.29
2023-04-12T09:18:16.620Z,64.22
2023-04-12T09:23:24.996Z,66.38
2023-04-12T09:28:31.561Z,65.02
2023-04-12T09:33:39.550Z,64.52
2023-04-12T09:38:48.089Z,63.03
2023-04-12T09:43:53.615Z,63.40
2023-04-12T09:49:00.347Z,62.18
2023-04-12T09:54:09.174Z,62.35
2023-04-12T09:59:16.716Z,63.82
2023-04-12T10:04:22.919Z,61.03
2023-04-12T10:09:28.960Z,60.01
2023-04-12T10:14:34.616Z,61.68
2023-04-12T10:19:42.038Z,61.71
2023-04-12T10:24:47.717Z,61.90
2023-04-12T10:29:53.485Z,60.57
2023-04-12T10:35:00.962Z,58.81
2023-04-12T10:40:07.634Z,59.13
2023-04-12T10:45:35.490Z,59.00
2023-04-12T10:50:41.236Z,57.83
2023-04-12T10:55:47.391Z,58.05
2023-04-12T11:01:04.697Z,55.77
2023-04-12T11:06:24.074Z,56.72
2023-04-12T11:11:40.029Z,57.19
2023-04-12T11:17:09.591Z,55.62
2023-04-12T11:22:17.076Z,55.17
2023-04-12T11:27:23.733Z,54.05
2023-04-12T11:32:31.579Z,54.13
2023-04-12T11:37:37.304Z,53.90
2023-04-12T11:42:43.339Z,53.14
2023-04-12T11:47:48.932Z,52.55
2023-04-12T11:52:54.946Z,52.17
2023-04-12T11:58:01.612Z,51.71
2023-04-12T12:03:08.685Z,51.74
2023-04-12T12:08:15.147Z,51.33
2023-04-12T12:13:20.840Z,50.94
2023-04-12T12:18:29.486Z,50.69
2023-04-12T12:23:35.770Z,49.58
2023-04-12T12:28:41.721Z,49.41
2023-04-12T12:33:47.637Z,48.85
2023-04-12T12:38:55.073Z,48.48
2023-04-12T12:44:01.812Z,47.52
2023-04-12T12:49:07.351Z,46.63
2023-04-12T12:54:12.852Z,46.92
2023-04-12T12:59:18.301Z,46.55
2023-04-12T13:04:23.990Z,46.10
2023-04-12T13:09:29.664Z,46.89
2023-04-12T13:14:35.791Z,45.34
2023-04-12T13:19:41.290Z,46.06
2023-04-12T13:24:47.028Z,45.15
2023-04-12T13:29:52.611Z,45.21
2023-04-12T13:34:58.062Z,43.82
2023-04-12T13:40:04.815Z,43.01
2023-04-12T13:45:11.526Z,43.38
2023-04-12T13:50:17.012Z,42.90
2023-04-12T13:55:22.740Z,42.38
2023-04-12T14:00:28.326Z,41.45
2023-04-12T14:05:33.758Z,40.92
2023-04-12T14:10:39.200Z,41.07
2023-04-12T14:15:44.708Z,40.61
2023-04-12T14:20:52.754Z,41.04
2023-04-12T14:25:58.262Z,40.55
2023-04-12T14:31:06.169Z,39.81
2023-04-12T14:36:11.300Z,40.05
2023-04-12T14:41:17.319Z,39.61
2023-04-12T14:46:23.858Z,39.95
2023-04-12T14:51:30.395Z,40.01
2023-04-12T14:56:43.860Z,39.75
2023-04-12T15:01:44.266Z,39.97
2023-04-12T15:06:49.830Z,40.15
2023-04-12T15:11:57.057Z,40.24
2023-04-12T15:17:02.730Z,38.94
2023-04-12T15:22:08.224Z,39.42
2023-04-12T15:27:13.945Z,39.15
2023-04-12T15:32:19.533Z,39.29
2023-04-12T15:37:25.805Z,39.18
2023-04-12T15:42:31.332Z,39.01
2023-04-12T15:47:37.537Z,39.27
2023-04-12T15:52:44.355Z,39.66
2023-04-12T15:57:50.024Z,39.57
2023-04-12T16:02:57.963Z,39.93
2023-04-12T16:08:04.234Z,39.73
2023-04-12T16:13:11.260Z,40.05
2023-04-12T16:18:18.129Z,40.53
2023-04-12T16:23:23.788Z,40.65
2023-04-12T16:28:29.758Z,40.92
2023-04-12T16:33:35.259Z,41.05
2023-04-12T16:38:41.272Z,41.27
2023-04-12T16:43:47.038Z,41.55
2023-04-12T16:48:52.479Z,41.79
2023-04-12T16:53:59.402Z,41.73
2023-04-12T16:59:05.213Z,42.12
2023-04-12T17:04:11.966Z,42.10
2023-04-12T17:09:17.981Z,42.24
2023-04-12T17:14:23.508Z,42.42
2023-04-12T17:19:28.954Z,42.63
2023-04-12T17:24:34.469Z,43.04
2023-04-12T17:29:41.463Z,43.28
2023-04-12T17:34:47.110Z,43.68
2023-04-12T17:39:53.595Z,43.84
2023-04-12T17:44:59.173Z,44.05
2023-04-12T17:50:05.412Z,44.31
2023-04-12T17:55:12.954Z,44.49
2023-04-12T18:00:19.417Z,44.70
2023-04-12T18:05:24.271Z,44.86
2023-04-12T18:10:30.418Z,45.18
2023-04-12T18:15:36.431Z,45.40
2023-04-12T18:20:42.260Z,45.54
2023-04-12T18:25:47.971Z,45.93
2023-04-12T18:30:55.497Z,46.10
2023-04-12T18:36:00.673Z,46.34
2023-04-12T18:41:06.316Z,46.63
2023-04-12T18:46:18.940Z,46.89
2023-04-12T18:51:24.831Z,47.07
2023-04-12T18:56:30.629Z,47.36
2023-04-12T19:01:37.051Z,47.29
2023-04-12T19:06:44.331Z,47.59
2023-04-12T19:11:49.932Z,48.01
2023-04-12T19:16:55.375Z,48.21
2023-04-12T19:22:00.992Z,48.68
2023-04-12T19:27:06.715Z,49.04
2023-04-12T19:32:12.678Z,49.39
2023-04-12T19:37:18.640Z,49.91
2023-04-12T19:42:24.093Z,50.13
2023-04-12T19:47:29.647Z,50.59
2023-04-12T19:52:35.430Z,50.91
2023-04-12T19:57:41.764Z,51.15
2023-04-12T20:02:49.269Z,51.38
2023-04-12T20:07:56.292Z,51.68
2023-04-12T20:13:02.007Z,51.81
2023-04-12T20:18:08.736Z,51.96
2023-04-12T20:23:14.955Z,52.17
2023-04-12T20:28:21.366Z,52.47
2023-04-12T20:33:27.524Z,52.71
2023-04-12T20:38:33.310Z,52.89
2023-04-12T20:43:46.657Z,53.03
2023-04-12T20:48:55.180Z,53.35
2023-04-12T20:54:02.580Z,53.55
2023-04-12T20:59:08.105Z,53.73
2023-04-12T21:04:16.010Z,53.76
2023-04-12T21:09:23.530Z,53.95
2023-04-12T21:14:29.607Z,54.03
2023-04-12T21:19:39.907Z,54.06
2023-04-12T21:24:45.498Z,54.10
2023-04-12T21:29:51.028Z,54.33
2023-04-12T21:34:58.150Z,54.27
2023-04-12T21:40:12.277Z,54.49
2023-04-12T21:45:17.991Z,54.57
2023-04-12T21:50:23.563Z,54.53
2023-04-12T21:55:29.177Z,54.47
2023-04-12T22:00:35.121Z,54.62
2023-04-12T22:05:40.611Z,54.69
2023-04-12T22:10:47.728Z,54.81
2023-04-12T22:15:53.315Z,54.86
2023-04-12T22:20:59.644Z,54.95
2023-04-12T22:26:07.118Z,54.97
2023-04-12T22:31:18.970Z,55.10
2023-04-12T22:36:29.778Z,55.22
2023-04-12T22:41:38.012Z,55.06
2023-04-12T22:46:45.313Z,55.20
2023-04-12T22:51:51.182Z,55.42
2023-04-12T22:56:56.634Z,55.37
2023-04-12T23:02:02.708Z,55.40
2023-04-12T23:07:08.510Z,55.48
2023-04-12T23:12:14.525Z,55.56
2023-04-12T23:17:19.962Z,55.56
2023-04-12T23:22:52.537Z,55.49
2023-04-12T23:27:43.788Z,55.58
2023-04-12T23:32:49.375Z,55.50
2023-04-12T23:37:56.175Z,55.43
2023-04-12T23:43:02.519Z,55.58
2023-04-12T23:48:08.107Z,55.38
2023-04-12T23:53:14.277Z,55.58
2023-04-12T23:58:20.817Z,55.72
